Sansumifuku — JD2579 — position and weather

sailwx.info

Track history (hours):
 
Tides and Currents Weather Stations Pressure Air Temp Water Temp Dewpoint Dewpoint Depression Visibility Wind Speed Wind Dir Waves Ship Positions

Sansumifuku

Last reported at 2014-Sep-15 17:08 UTC. Time now 2014-Sep-18 13:43 UTC.
Position N 35°15' E 140°32'.

Length 75 m; draft 4.3 m.

Type: Cargo ship. MMSI: 431000426.

Date/timePositionNaut miles runAvg speedWind from/ knotsBaromVisibWave heightAir tempDewpointWater temp
2014-Sep-15 17:08N 35°15' E 140°32'3513.1
2014-Sep-15 14:28N 34°54' E 139°58'249 9.8
2014-Sep-14 13:06N 34°05' E 135°02'712.1
2014-Sep-14 12:33N 34°11' E 135°03'1211.9
2014-Sep-14 11:32N 34°23' E 135°08'1212.7
2014-Sep-14 10:33N 34°33' E 135°17'10 9.9
2014-Sep-14 09:33N 34°38' E 135°27'0 0.3
2014-Sep-14 08:17N 34°38' E 135°28'0 0.0
2014-Sep-14 06:06N 34°38' E 135°28'0 0.0
2014-Sep-14 05:30N 34°38' E 135°28'0 0.0
2014-Sep-14 04:30N 34°38' E 135°28'0 0.0
2014-Sep-14 03:30N 34°38' E 135°28'0 0.0
2014-Sep-14 02:30N 34°38' E 135°28'0 0.0
2014-Sep-14 01:24N 34°38' E 135°28'0 0.1
2014-Sep-13 21:32N 34°38' E 135°27'0 0.0
2014-Sep-13 20:32N 34°38' E 135°27'0 0.0
2014-Sep-13 19:32N 34°38' E 135°27'0 0.0
2014-Sep-13 18:32N 34°38' E 135°27'0 0.0
2014-Sep-13 16:14N 34°38' E 135°27'0 0.0
2014-Sep-13 13:32N 34°38' E 135°27'0 0.0
2014-Sep-13 12:32N 34°38' E 135°27'0 0.0
2014-Sep-13 11:32N 34°38' E 135°27'0 0.0
2014-Sep-13 10:32N 34°38' E 135°27'0 0.0
2014-Sep-13 09:32N 34°38' E 135°27'0 0.0
2014-Sep-13 08:26N 34°38' E 135°27'0 0.1
2014-Sep-13 07:32N 34°38' E 135°27'0 0.0
2014-Sep-13 06:32N 34°38' E 135°27'0 0.0
2014-Sep-13 05:20N 34°38' E 135°27'0 0.1
2014-Sep-13 04:32N 34°38' E 135°27'0 0.0
2014-Sep-13 03:32N 34°38' E 135°27'2 2.2
2014-Sep-13 02:33N 34°39' E 135°25'3 2.3
2014-Sep-13 01:28N 34°37' E 135°22'0 0.0
2014-Sep-13 00:28N 34°37' E 135°22'0 0.0
2014-Sep-12 23:22N 34°37' E 135°22'0 0.0
2014-Sep-12 22:28N 34°37' E 135°22'0 0.1
2014-Sep-12 21:28N 34°37' E 135°22'0 0.0
2014-Sep-12 20:22N 34°37' E 135°22'0 0.0
2014-Sep-12 19:28N 34°37' E 135°22'0 0.0
2014-Sep-12 18:22N 34°37' E 135°22'0 0.0
2014-Sep-12 17:28N 34°37' E 135°22'0 0.0
2014-Sep-12 16:28N 34°37' E 135°22'0 0.0
2014-Sep-12 15:28N 34°37' E 135°22'0 0.0
2014-Sep-12 14:22N 34°37' E 135°22'0 0.0
2014-Sep-12 13:28N 34°37' E 135°22'0 0.0
2014-Sep-12 12:10N 34°37' E 135°22'0 0.0
2014-Sep-12 10:22N 34°37' E 135°22'0 0.0
2014-Sep-12 09:28N 34°37' E 135°22'0 0.0
2014-Sep-12 08:22N 34°37' E 135°22'0 0.0
2014-Sep-12 06:22N 34°37' E 135°22'0 0.0
2014-Sep-12 05:22N 34°37' E 135°22'0 0.0
2014-Sep-12 04:10N 34°37' E 135°22'0 0.0
2014-Sep-12 03:28N 34°37' E 135°22'0 0.2
2014-Sep-12 02:32N 34°37' E 135°22'1111.1
2014-Sep-12 01:32N 34°29' E 135°13'1611.8
2014-Sep-12 00:11N 34°15' E 135°03'239 9.3
2014-Sep-10 22:33N 35°12' E 139°46'1111.0
2014-Sep-10 21:31N 35°23' E 139°42'7 7.5
2014-Sep-10 20:33N 35°21' E 139°51'0 0.3
2014-Sep-10 19:23N 35°21' E 139°51'0 0.0
2014-Sep-10 18:33N 35°21' E 139°51'0 0.0
2014-Sep-10 17:33N 35°21' E 139°51'0 0.0
2014-Sep-10 16:33N 35°21' E 139°51'0 0.0
2014-Sep-10 15:33N 35°21' E 139°51'0 0.0
2014-Sep-10 14:33N 35°21' E 139°51'0 0.0
2014-Sep-10 13:25N 35°21' E 139°51'0 0.0
2014-Sep-10 12:32N 35°21' E 139°51'0 0.0
2014-Sep-10 11:33N 35°21' E 139°51'0 0.0
2014-Sep-10 09:33N 35°21' E 139°51'4 4.3
2014-Sep-10 08:33N 35°25' E 139°49'1211.7
2014-Sep-10 07:34N 35°37' E 139°49'2 0.3
2014-Sep-10 01:19N 35°38' E 139°48'1 1.0
2014-Sep-10 00:33N 35°37' E 139°49'3 2.6
2014-Sep-09 23:25N 35°35' E 139°52'0 0.0
2014-Sep-09 22:31N 35°35' E 139°52'0 0.0
2014-Sep-09 21:31N 35°35' E 139°52'0 0.0
2014-Sep-09 20:31N 35°35' E 139°52'0 0.0
2014-Sep-09 19:31N 35°35' E 139°52'0 0.0
2014-Sep-09 18:31N 35°35' E 139°52'0 0.0
2014-Sep-09 17:31N 35°35' E 139°52'0 0.1
2014-Sep-09 16:31N 35°35' E 139°52'0 0.0
2014-Sep-09 15:19N 35°35' E 139°52'0 0.1
2014-Sep-09 14:22N 35°35' E 139°52'0 0.0
2014-Sep-09 13:25N 35°35' E 139°52'0 0.0
2014-Sep-09 12:28N 35°35' E 139°52'0 0.0
2014-Sep-09 11:28N 35°35' E 139°52'8 8.5
2014-Sep-09 10:33N 35°28' E 139°47'7 6.7
2014-Sep-09 09:33N 35°29' E 139°39'0 0.0
2014-Sep-09 08:33N 35°29' E 139°39'0 0.0
2014-Sep-09 07:31N 35°29' E 139°39'0 0.0
2014-Sep-09 06:31N 35°29' E 139°39'0 0.2
2014-Sep-09 05:33N 35°28' E 139°39'3 3.0
2014-Sep-09 04:33N 35°27' E 139°42'0 0.1
2014-Sep-09 03:33N 35°27' E 139°43'0 0.0
2014-Sep-09 02:33N 35°27' E 139°43'0 0.0
2014-Sep-09 01:33N 35°27' E 139°43'0 0.1
2014-Sep-09 00:33N 35°27' E 139°43'0 0.0
2014-Sep-08 23:33N 35°27' E 139°43'0 0.0
2014-Sep-08 22:30N 35°27' E 139°43'0 0.0
2014-Sep-08 21:33N 35°27' E 139°43'3 2.6
2014-Sep-08 20:33N 35°26' E 139°45'7 0.6
2014-Sep-08 09:31N 35°21' E 139°51'2 1.6
2014-Sep-08 08:31N 35°22' E 139°49'0 0.0
2014-Sep-08 07:31N 35°22' E 139°49'0 0.0
2014-Sep-08 06:31N 35°22' E 139°49'0 0.0
2014-Sep-08 05:25N 35°22' E 139°49'0 0.0
2014-Sep-08 04:31N 35°22' E 139°49'0 0.0
2014-Sep-08 03:31N 35°22' E 139°49'0 0.0
2014-Sep-08 02:28N 35°22' E 139°49'0 0.0
2014-Sep-08 01:28N 35°22' E 139°49'0 0.0
2014-Sep-08 00:31N 35°22' E 139°49'0 0.0
2014-Sep-07 23:31N 35°22' E 139°49'0 0.0
2014-Sep-07 22:34N 35°22' E 139°49'0 0.0
2014-Sep-07 21:28N 35°22' E 139°49'0 0.0
2014-Sep-07 20:25N 35°22' E 139°49'0 0.0
2014-Sep-07 18:31N 35°22' E 139°49'0 0.0
2014-Sep-07 17:31N 35°22' E 139°49'0 0.0
2014-Sep-07 16:22N 35°22' E 139°49'0 0.0
2014-Sep-07 15:28N 35°22' E 139°49'0 0.0
2014-Sep-07 14:31N 35°22' E 139°49'0 0.1
2014-Sep-07 13:31N 35°22' E 139°49'0 0.0
2014-Sep-07 12:28N 35°22' E 139°49'0 0.0
2014-Sep-07 11:31N 35°22' E 139°49'0 0.0
2014-Sep-07 10:31N 35°22' E 139°49'0 0.0
2014-Sep-07 09:31N 35°22' E 139°49'0 0.0
2014-Sep-07 08:28N 35°22' E 139°49'0 0.0
2014-Sep-07 07:31N 35°22' E 139°49'0 0.0
2014-Sep-07 06:28N 35°22' E 139°49'0 0.0
2014-Sep-07 05:31N 35°22' E 139°49'0 0.0
2014-Sep-07 04:31N 35°22' E 139°49'0 0.0
2014-Sep-07 03:28N 35°22' E 139°49'0 0.0
2014-Sep-07 02:22N 35°22' E 139°49'0 0.0
2014-Sep-07 01:31N 35°22' E 139°49'0 0.0
2014-Sep-07 00:25N 35°22' E 139°49'0 0.0
2014-Sep-06 23:31N 35°22' E 139°49'0 0.0
2014-Sep-06 22:28N 35°22' E 139°49'0 0.0
2014-Sep-06 21:31N 35°22' E 139°49'1 1.1
2014-Sep-06 20:33N 35°22' E 139°48'7 7.1
2014-Sep-06 19:33N 35°15' E 139°47'1212.1
2014-Sep-06 18:33N 35°03' E 139°45'15 6.5
2014-Sep-06 16:11N 34°57' E 140°02'6 8.1
2014-Sep-06 15:30N 34°60' E 140°08'6210.4
2014-Sep-06 09:31N 35°49' E 140°54'1111.3
2014-Sep-06 08:33N 36°00' E 140°53'  
Track history (hours):
 
Tides and Currents Weather Stations Pressure Air Temp Water Temp Dewpoint Dewpoint Depression Visibility Wind Speed Wind Dir Waves Ship Positions

Sansumifuku

Last reported at 2014-Sep-15 17:08 UTC. Time now 2014-Sep-18 13:43 UTC.
Position N 35°15' E 140°32'.

Length 75 m; draft 4.3 m.

Type: Cargo ship. MMSI: 431000426.

Date/timePositionNaut miles runAvg speedWind from/ knotsBaromVisibWave heightAir tempDewpointWater temp
2014-Sep-15 17:08N 35°15' E 140°32'3513.1
2014-Sep-15 14:28N 34°54' E 139°58'249 9.8
2014-Sep-14 13:06N 34°05' E 135°02'712.1
2014-Sep-14 12:33N 34°11' E 135°03'1211.9
2014-Sep-14 11:32N 34°23' E 135°08'1212.7
2014-Sep-14 10:33N 34°33' E 135°17'10 9.9
2014-Sep-14 09:33N 34°38' E 135°27'0 0.3
2014-Sep-14 08:17N 34°38' E 135°28'0 0.0
2014-Sep-14 06:06N 34°38' E 135°28'0 0.0
2014-Sep-14 05:30N 34°38' E 135°28'0 0.0
2014-Sep-14 04:30N 34°38' E 135°28'0 0.0
2014-Sep-14 03:30N 34°38' E 135°28'0 0.0
2014-Sep-14 02:30N 34°38' E 135°28'0 0.0
2014-Sep-14 01:24N 34°38' E 135°28'0 0.1
2014-Sep-13 21:32N 34°38' E 135°27'0 0.0
2014-Sep-13 20:32N 34°38' E 135°27'0 0.0
2014-Sep-13 19:32N 34°38' E 135°27'0 0.0
2014-Sep-13 18:32N 34°38' E 135°27'0 0.0
2014-Sep-13 16:14N 34°38' E 135°27'0 0.0
2014-Sep-13 13:32N 34°38' E 135°27'0 0.0
2014-Sep-13 12:32N 34°38' E 135°27'0 0.0
2014-Sep-13 11:32N 34°38' E 135°27'0 0.0
2014-Sep-13 10:32N 34°38' E 135°27'0 0.0
2014-Sep-13 09:32N 34°38' E 135°27'0 0.0
2014-Sep-13 08:26N 34°38' E 135°27'0 0.1
2014-Sep-13 07:32N 34°38' E 135°27'0 0.0
2014-Sep-13 06:32N 34°38' E 135°27'0 0.0
2014-Sep-13 05:20N 34°38' E 135°27'0 0.1
2014-Sep-13 04:32N 34°38' E 135°27'0 0.0
2014-Sep-13 03:32N 34°38' E 135°27'2 2.2
2014-Sep-13 02:33N 34°39' E 135°25'3 2.3
2014-Sep-13 01:28N 34°37' E 135°22'0 0.0
2014-Sep-13 00:28N 34°37' E 135°22'0 0.0
2014-Sep-12 23:22N 34°37' E 135°22'0 0.0
2014-Sep-12 22:28N 34°37' E 135°22'0 0.1
2014-Sep-12 21:28N 34°37' E 135°22'0 0.0
2014-Sep-12 20:22N 34°37' E 135°22'0 0.0
2014-Sep-12 19:28N 34°37' E 135°22'0 0.0
2014-Sep-12 18:22N 34°37' E 135°22'0 0.0
2014-Sep-12 17:28N 34°37' E 135°22'0 0.0
2014-Sep-12 16:28N 34°37' E 135°22'0 0.0
2014-Sep-12 15:28N 34°37' E 135°22'0 0.0
2014-Sep-12 14:22N 34°37' E 135°22'0 0.0
2014-Sep-12 13:28N 34°37' E 135°22'0 0.0
2014-Sep-12 12:10N 34°37' E 135°22'0 0.0
2014-Sep-12 10:22N 34°37' E 135°22'0 0.0
2014-Sep-12 09:28N 34°37' E 135°22'0 0.0
2014-Sep-12 08:22N 34°37' E 135°22'0 0.0
2014-Sep-12 06:22N 34°37' E 135°22'0 0.0
2014-Sep-12 05:22N 34°37' E 135°22'0 0.0
2014-Sep-12 04:10N 34°37' E 135°22'0 0.0
2014-Sep-12 03:28N 34°37' E 135°22'0 0.2
2014-Sep-12 02:32N 34°37' E 135°22'1111.1
2014-Sep-12 01:32N 34°29' E 135°13'1611.8
2014-Sep-12 00:11N 34°15' E 135°03'239 9.3
2014-Sep-10 22:33N 35°12' E 139°46'1111.0
2014-Sep-10 21:31N 35°23' E 139°42'7 7.5
2014-Sep-10 20:33N 35°21' E 139°51'0 0.3
2014-Sep-10 19:23N 35°21' E 139°51'0 0.0
2014-Sep-10 18:33N 35°21' E 139°51'0 0.0
2014-Sep-10 17:33N 35°21' E 139°51'0 0.0
2014-Sep-10 16:33N 35°21' E 139°51'0 0.0
2014-Sep-10 15:33N 35°21' E 139°51'0 0.0
2014-Sep-10 14:33N 35°21' E 139°51'0 0.0
2014-Sep-10 13:25N 35°21' E 139°51'0 0.0
2014-Sep-10 12:32N 35°21' E 139°51'0 0.0
2014-Sep-10 11:33N 35°21' E 139°51'0 0.0
2014-Sep-10 09:33N 35°21' E 139°51'4 4.3
2014-Sep-10 08:33N 35°25' E 139°49'1211.7
2014-Sep-10 07:34N 35°37' E 139°49'2 0.3
2014-Sep-10 01:19N 35°38' E 139°48'1 1.0
2014-Sep-10 00:33N 35°37' E 139°49'3 2.6
2014-Sep-09 23:25N 35°35' E 139°52'0 0.0
2014-Sep-09 22:31N 35°35' E 139°52'0 0.0
2014-Sep-09 21:31N 35°35' E 139°52'0 0.0
2014-Sep-09 20:31N 35°35' E 139°52'0 0.0
2014-Sep-09 19:31N 35°35' E 139°52'0 0.0
2014-Sep-09 18:31N 35°35' E 139°52'0 0.0
2014-Sep-09 17:31N 35°35' E 139°52'0 0.1
2014-Sep-09 16:31N 35°35' E 139°52'0 0.0
2014-Sep-09 15:19N 35°35' E 139°52'0 0.1
2014-Sep-09 14:22N 35°35' E 139°52'0 0.0
2014-Sep-09 13:25N 35°35' E 139°52'0 0.0
2014-Sep-09 12:28N 35°35' E 139°52'0 0.0
2014-Sep-09 11:28N 35°35' E 139°52'8 8.5
2014-Sep-09 10:33N 35°28' E 139°47'7 6.7
2014-Sep-09 09:33N 35°29' E 139°39'0 0.0
2014-Sep-09 08:33N 35°29' E 139°39'0 0.0
2014-Sep-09 07:31N 35°29' E 139°39'0 0.0
2014-Sep-09 06:31N 35°29' E 139°39'0 0.2
2014-Sep-09 05:33N 35°28' E 139°39'3 3.0
2014-Sep-09 04:33N 35°27' E 139°42'0 0.1
2014-Sep-09 03:33N 35°27' E 139°43'0 0.0
2014-Sep-09 02:33N 35°27' E 139°43'0 0.0
2014-Sep-09 01:33N 35°27' E 139°43'0 0.1
2014-Sep-09 00:33N 35°27' E 139°43'0 0.0
2014-Sep-08 23:33N 35°27' E 139°43'0 0.0
2014-Sep-08 22:30N 35°27' E 139°43'0 0.0
2014-Sep-08 21:33N 35°27' E 139°43'3 2.6
2014-Sep-08 20:33N 35°26' E 139°45'7 0.6
2014-Sep-08 09:31N 35°21' E 139°51'2 1.6
2014-Sep-08 08:31N 35°22' E 139°49'0 0.0
2014-Sep-08 07:31N 35°22' E 139°49'0 0.0
2014-Sep-08 06:31N 35°22' E 139°49'0 0.0
2014-Sep-08 05:25N 35°22' E 139°49'0 0.0
2014-Sep-08 04:31N 35°22' E 139°49'0 0.0
2014-Sep-08 03:31N 35°22' E 139°49'0 0.0
2014-Sep-08 02:28N 35°22' E 139°49'0 0.0
2014-Sep-08 01:28N 35°22' E 139°49'0 0.0
2014-Sep-08 00:31N 35°22' E 139°49'0 0.0
2014-Sep-07 23:31N 35°22' E 139°49'0 0.0
2014-Sep-07 22:34N 35°22' E 139°49'0 0.0
2014-Sep-07 21:28N 35°22' E 139°49'0 0.0
2014-Sep-07 20:25N 35°22' E 139°49'0 0.0
2014-Sep-07 18:31N 35°22' E 139°49'0 0.0
2014-Sep-07 17:31N 35°22' E 139°49'0 0.0
2014-Sep-07 16:22N 35°22' E 139°49'0 0.0
2014-Sep-07 15:28N 35°22' E 139°49'0 0.0
2014-Sep-07 14:31N 35°22' E 139°49'0 0.1
2014-Sep-07 13:31N 35°22' E 139°49'0 0.0
2014-Sep-07 12:28N 35°22' E 139°49'0 0.0
2014-Sep-07 11:31N 35°22' E 139°49'0 0.0
2014-Sep-07 10:31N 35°22' E 139°49'0 0.0
2014-Sep-07 09:31N 35°22' E 139°49'0 0.0
2014-Sep-07 08:28N 35°22' E 139°49'0 0.0
2014-Sep-07 07:31N 35°22' E 139°49'0 0.0
2014-Sep-07 06:28N 35°22' E 139°49'0 0.0
2014-Sep-07 05:31N 35°22' E 139°49'0 0.0
2014-Sep-07 04:31N 35°22' E 139°49'0 0.0
2014-Sep-07 03:28N 35°22' E 139°49'0 0.0
2014-Sep-07 02:22N 35°22' E 139°49'0 0.0
2014-Sep-07 01:31N 35°22' E 139°49'0 0.0
2014-Sep-07 00:25N 35°22' E 139°49'0 0.0
2014-Sep-06 23:31N 35°22' E 139°49'0 0.0
2014-Sep-06 22:28N 35°22' E 139°49'0 0.0
2014-Sep-06 21:31N 35°22' E 139°49'1 1.1
2014-Sep-06 20:33N 35°22' E 139°48'7 7.1
2014-Sep-06 19:33N 35°15' E 139°47'1212.1
2014-Sep-06 18:33N 35°03' E 139°45'15 6.5
2014-Sep-06 16:11N 34°57' E 140°02'6 8.1
2014-Sep-06 15:30N 34°60' E 140°08'6210.4
2014-Sep-06 09:31N 35°49' E 140°54'1111.3
2014-Sep-06 08:33N 36°00' E 140°53'  

Dump ship's entire track history